createdAt,value
2022-11-12T00:01:45.802Z,12.80
2022-11-12T00:04:52.679Z,7.30
2022-11-12T00:07:59.649Z,8.50
2022-11-12T00:11:06.617Z,8.50
2022-11-12T00:14:13.639Z,7.40
2022-11-12T00:17:20.661Z,8.60
2022-11-12T00:20:27.613Z,6.80
2022-11-12T00:23:35.991Z,8.40
2022-11-12T00:26:43.096Z,8.30
2022-11-12T00:29:50.493Z,9.60
2022-11-12T00:32:57.180Z,9.20
2022-11-12T00:36:04.856Z,7.50
2022-11-12T00:39:11.565Z,7.30
2022-11-12T00:42:19.174Z,7.10
2022-11-12T00:45:26.291Z,9.70
2022-11-12T00:48:33.502Z,8.90
2022-11-12T00:51:40.865Z,6.40
2022-11-12T00:54:47.894Z,7.20
2022-11-12T00:57:55.157Z,7.00
2022-11-12T01:01:02.388Z,8.70
2022-11-12T01:04:09.510Z,7.00
2022-11-12T01:07:16.711Z,9.20
2022-11-12T01:10:24.327Z,7.30
2022-11-12T01:13:31.458Z,11.40
2022-11-12T01:16:38.599Z,11.70
2022-11-12T01:19:45.716Z,6.70
2022-11-12T01:22:52.812Z,8.60
2022-11-12T01:25:59.955Z,6.40
2022-11-12T01:29:06.640Z,8.00
2022-11-12T01:32:14.305Z,6.40
2022-11-12T01:35:23.770Z,6.90
2022-11-12T01:38:31.243Z,6.50
2022-11-12T01:41:38.084Z,4.00
2022-11-12T01:42:21.627Z,6.20
2022-11-12T01:45:29.820Z,6.10
2022-11-12T01:48:36.928Z,5.90
2022-11-12T01:51:44.668Z,6.80
2022-11-12T01:54:51.946Z,5.40
2022-11-12T01:57:59.370Z,7.30
2022-11-12T02:01:06.789Z,9.40
2022-11-12T02:04:14.159Z,7.50
2022-11-12T02:07:21.391Z,7.80
2022-11-12T02:10:29.392Z,8.60
2022-11-12T02:13:36.270Z,7.80
2022-11-12T02:16:44.070Z,7.60
2022-11-12T02:19:50.891Z,8.90
2022-11-12T02:22:58.884Z,7.10
2022-11-12T02:26:06.312Z,7.50
2022-11-12T02:29:13.601Z,7.80
2022-11-12T02:32:21.443Z,9.30
2022-11-12T02:35:28.541Z,7.90
2022-11-12T02:38:35.639Z,8.80
2022-11-12T02:41:42.924Z,9.20
2022-11-12T02:44:50.154Z,7.80
2022-11-12T02:47:57.464Z,11.30
2022-11-12T02:51:05.213Z,8.30
2022-11-12T02:54:12.434Z,6.60
2022-11-12T02:57:19.695Z,10.90
2022-11-12T03:00:27.145Z,13.30
2022-11-12T03:03:34.643Z,10.90
2022-11-12T03:06:42.612Z,8.10
2022-11-12T03:09:50.353Z,12.10
2022-11-12T03:12:57.724Z,6.10
2022-11-12T03:16:05.029Z,7.40
2022-11-12T03:19:12.931Z,9.90
2022-11-12T03:22:20.738Z,6.70
2022-11-12T03:25:27.719Z,7.50
2022-11-12T03:28:35.578Z,8.10
2022-11-12T03:31:42.661Z,11.00
2022-11-12T03:34:55.161Z,8.80
2022-11-12T03:37:52.671Z,5.50
2022-11-12T03:40:59.525Z,8.70
2022-11-12T03:44:07.284Z,5.70
2022-11-12T03:47:14.242Z,7.10
2022-11-12T03:50:22.107Z,7.90
2022-11-12T03:53:29.432Z,9.50
2022-11-12T03:56:36.751Z,4.80
2022-11-12T03:59:43.974Z,7.00
2022-11-12T04:02:51.793Z,6.70
2022-11-12T04:05:58.733Z,5.90
2022-11-12T04:09:06.506Z,6.30
2022-11-12T04:12:13.845Z,5.70
2022-11-12T04:15:21.217Z,9.10
2022-11-12T04:18:29.216Z,9.00
2022-11-12T04:21:36.097Z,11.30
2022-11-12T04:24:44.189Z,8.10
2022-11-12T04:27:51.463Z,9.90
2022-11-12T04:30:58.916Z,6.70
2022-11-12T04:34:06.750Z,7.90
2022-11-12T04:37:13.788Z,6.20
2022-11-12T04:40:21.616Z,6.70
2022-11-12T04:43:28.687Z,8.10
2022-11-12T04:46:36.391Z,7.20
2022-11-12T04:49:44.374Z,7.10
2022-11-12T04:52:51.341Z,8.90
2022-11-12T04:55:59.303Z,7.00
2022-11-12T04:59:06.223Z,6.60
2022-11-12T05:02:14.003Z,7.80
2022-11-12T05:05:21.182Z,6.80
2022-11-12T05:08:28.611Z,6.90
2022-11-12T05:11:36.013Z,7.10
2022-11-12T05:14:43.412Z,6.10
2022-11-12T05:17:51.335Z,9.30
2022-11-12T05:20:58.761Z,6.10
2022-11-12T05:24:06.038Z,6.70
2022-11-12T05:27:13.337Z,6.90
2022-11-12T05:30:21.945Z,6.50
2022-11-12T05:33:28.894Z,6.70
2022-11-12T05:36:36.573Z,6.00
2022-11-12T05:39:43.975Z,8.50
2022-11-12T05:42:51.467Z,6.80
2022-11-12T05:45:59.476Z,9.00
2022-11-12T05:49:06.557Z,8.40
2022-11-12T05:52:14.300Z,9.50
2022-11-12T05:55:21.244Z,9.60
2022-11-12T05:58:29.133Z,9.00
2022-11-12T06:01:36.478Z,8.10
2022-11-12T06:04:43.864Z,8.80
2022-11-12T06:07:51.510Z,9.90
2022-11-12T06:10:58.735Z,10.10
2022-11-12T06:14:06.125Z,10.60
2022-11-12T06:17:13.403Z,8.90
2022-11-12T06:20:20.956Z,12.50
2022-11-12T06:23:28.903Z,10.70
2022-11-12T06:26:36.368Z,8.90
2022-11-12T06:29:43.671Z,10.90
2022-11-12T06:32:50.939Z,9.40
2022-11-12T06:35:57.905Z,14.70
2022-11-12T06:39:05.313Z,13.70
2022-11-12T06:42:12.633Z,15.80
2022-11-12T06:45:19.503Z,20.10
2022-11-12T06:48:27.213Z,18.30
2022-11-12T06:51:34.174Z,15.90
2022-11-12T06:54:41.473Z,17.30
2022-11-12T06:57:51.135Z,15.70
2022-11-12T07:00:58.040Z,13.50
2022-11-12T07:04:05.829Z,13.60
2022-11-12T07:07:13.238Z,14.50
2022-11-12T07:10:20.412Z,14.50
2022-11-12T07:13:28.058Z,13.80
2022-11-12T07:16:35.442Z,13.60
2022-11-12T07:19:44.799Z,14.10
2022-11-12T07:22:52.190Z,14.70
2022-11-12T07:25:59.478Z,15.50
2022-11-12T07:29:06.682Z,12.90
2022-11-12T07:32:13.984Z,14.20
2022-11-12T07:35:21.222Z,13.90
2022-11-12T07:38:29.570Z,13.90
2022-11-12T07:41:37.124Z,15.60
2022-11-12T07:44:44.448Z,9.70
2022-11-12T07:47:52.506Z,10.40
2022-11-12T07:50:59.438Z,13.10
2022-11-12T07:54:06.967Z,13.30
2022-11-12T07:57:14.008Z,10.90
2022-11-12T08:00:21.681Z,12.50
2022-11-12T08:03:29.460Z,11.50
2022-11-12T08:06:36.896Z,13.20
2022-11-12T08:09:44.720Z,8.60
2022-11-12T08:12:51.540Z,6.60
2022-11-12T08:16:00.310Z,7.10
2022-11-12T08:19:07.660Z,8.00
2022-11-12T08:22:14.852Z,8.00
2022-11-12T08:25:22.824Z,4.90
2022-11-12T08:28:30.217Z,4.40
2022-11-12T08:31:38.000Z,6.40
2022-11-12T08:34:45.382Z,6.00
2022-11-12T08:37:52.456Z,5.60
2022-11-12T08:40:59.717Z,6.40
2022-11-12T08:44:08.720Z,7.10
2022-11-12T08:47:16.309Z,6.80
2022-11-12T08:50:23.875Z,5.10
2022-11-12T08:53:30.745Z,7.50
2022-11-12T08:56:38.237Z,5.50
2022-11-12T08:59:45.936Z,11.20
2022-11-12T09:02:52.749Z,8.80
2022-11-12T09:06:00.345Z,7.70
2022-11-12T09:09:07.030Z,7.20
2022-11-12T09:12:19.320Z,7.00
2022-11-12T09:15:36.406Z,6.70
2022-11-12T09:18:20.108Z,5.70
2022-11-12T09:21:27.651Z,6.70
2022-11-12T09:24:34.395Z,4.40
2022-11-12T09:27:48.148Z,5.70
2022-11-12T09:30:45.076Z,3.60
2022-11-12T09:33:52.314Z,5.70
2022-11-12T09:36:59.624Z,4.20
2022-11-12T09:40:06.799Z,4.30
2022-11-12T09:43:14.133Z,5.20
2022-11-12T09:46:27.782Z,4.60
2022-11-12T09:49:24.947Z,2.80
2022-11-12T09:52:32.435Z,3.30
2022-11-12T09:55:39.727Z,3.60
2022-11-12T09:58:46.918Z,5.50
2022-11-12T10:01:54.466Z,4.80
2022-11-12T10:05:01.128Z,3.80
2022-11-12T10:08:08.617Z,4.40
2022-11-12T10:11:15.409Z,4.50
2022-11-12T10:14:23.929Z,5.00
2022-11-12T10:17:31.069Z,3.60
2022-11-12T10:20:38.942Z,3.50
2022-11-12T10:23:46.351Z,2.50
2022-11-12T10:26:54.332Z,4.50
2022-11-12T10:30:01.153Z,4.40
2022-11-12T10:33:08.424Z,2.10
2022-11-12T10:36:15.271Z,3.40
2022-11-12T10:39:22.832Z,4.20
2022-11-12T10:42:29.935Z,5.40
2022-11-12T10:45:36.672Z,4.20
2022-11-12T10:48:43.953Z,2.30
2022-11-12T10:51:51.247Z,3.00
2022-11-12T10:54:58.709Z,4.00
2022-11-12T10:58:05.549Z,3.70
2022-11-12T11:01:12.639Z,7.00
2022-11-12T11:04:15.438Z,3.60
2022-11-12T11:07:20.949Z,4.20
2022-11-12T11:10:21.348Z,4.70
2022-11-12T11:13:28.912Z,3.90
2022-11-12T11:16:36.188Z,2.80
2022-11-12T11:19:43.290Z,3.80
2022-11-12T11:22:50.441Z,3.10
2022-11-12T11:25:57.144Z,1.80
2022-11-12T11:29:04.631Z,3.30
2022-11-12T11:32:11.480Z,2.80
2022-11-12T11:35:19.197Z,3.00
2022-11-12T11:38:26.652Z,2.00
2022-11-12T11:41:34.002Z,4.80
2022-11-12T11:44:41.518Z,2.60
2022-11-12T11:48:00.549Z,2.10
2022-11-12T11:50:53.057Z,2.00
2022-11-12T11:53:59.986Z,3.00
2022-11-12T11:57:07.189Z,3.70
2022-11-12T12:00:14.361Z,2.90
2022-11-12T12:03:21.506Z,3.70
2022-11-12T12:06:29.402Z,4.00
2022-11-12T12:09:37.513Z,3.60
2022-11-12T12:12:44.779Z,4.50
2022-11-12T12:15:52.143Z,3.90
2022-11-12T12:18:59.364Z,2.80
2022-11-12T12:22:07.162Z,2.60
2022-11-12T12:25:14.517Z,3.00
2022-11-12T12:28:21.683Z,2.10
2022-11-12T12:31:28.967Z,2.70
2022-11-12T12:34:36.470Z,3.80
2022-11-12T12:37:43.589Z,1.70
2022-11-12T12:40:50.667Z,2.70
2022-11-12T12:43:58.061Z,2.30
2022-11-12T12:47:05.262Z,3.60
2022-11-12T12:50:12.563Z,1.30
2022-11-12T12:53:19.553Z,3.30
2022-11-12T12:56:26.896Z,1.70
2022-11-12T12:59:34.517Z,2.60
2022-11-12T13:02:41.504Z,2.40
2022-11-12T13:05:48.975Z,3.30
2022-11-12T13:08:56.247Z,4.50
2022-11-12T13:12:03.708Z,3.10
2022-11-12T13:15:11.378Z,2.90
2022-11-12T13:18:18.050Z,3.10
2022-11-12T13:21:25.750Z,3.90
2022-11-12T13:24:33.411Z,2.20
2022-11-12T13:27:41.681Z,2.40
2022-11-12T13:30:48.812Z,2.80
2022-11-12T13:33:56.514Z,2.80
2022-11-12T13:37:03.685Z,3.70
2022-11-12T13:40:11.542Z,3.00
2022-11-12T13:43:18.829Z,3.30
2022-11-12T13:46:26.098Z,2.50
2022-11-12T13:49:33.629Z,2.50
2022-11-12T13:52:40.260Z,2.00
2022-11-12T13:55:47.889Z,2.90
2022-11-12T13:58:54.960Z,4.10
2022-11-12T14:02:02.054Z,2.40
2022-11-12T14:05:09.801Z,3.60
2022-11-12T14:08:16.603Z,2.60
2022-11-12T14:11:24.263Z,5.40
2022-11-12T14:14:31.369Z,3.60
2022-11-12T14:17:38.488Z,3.00
2022-11-12T14:20:46.015Z,3.60
2022-11-12T14:23:52.675Z,5.10
2022-11-12T14:27:00.290Z,5.00
2022-11-12T14:30:07.040Z,3.60
2022-11-12T14:33:14.738Z,4.70
2022-11-12T14:36:21.982Z,5.30
2022-11-12T14:39:29.071Z,3.60
2022-11-12T14:42:36.039Z,5.00
2022-11-12T14:45:43.521Z,4.70
2022-11-12T14:48:50.692Z,3.30
2022-11-12T14:51:58.504Z,3.10
2022-11-12T14:55:06.454Z,2.90
2022-11-12T14:58:14.014Z,2.50
2022-11-12T15:02:08.868Z,2.70
2022-11-12T15:04:26.900Z,3.10
2022-11-12T15:07:34.207Z,3.60
2022-11-12T15:10:41.956Z,2.50
2022-11-12T15:13:48.751Z,2.00
2022-11-12T15:16:56.427Z,4.10
2022-11-12T15:20:03.599Z,2.80
2022-11-12T15:23:10.709Z,4.70
2022-11-12T15:26:17.949Z,4.30
2022-11-12T15:29:24.811Z,4.00
2022-11-12T15:32:32.413Z,3.00
2022-11-12T15:35:39.802Z,6.40
2022-11-12T15:38:46.953Z,7.30
2022-11-12T15:41:54.654Z,5.80
2022-11-12T15:45:01.810Z,4.00
2022-11-12T15:48:09.565Z,4.30
2022-11-12T15:51:16.684Z,4.60
2022-11-12T15:54:23.825Z,6.90
2022-11-12T15:57:31.038Z,4.90
2022-11-12T16:00:38.960Z,5.50
2022-11-12T16:03:46.256Z,5.10
2022-11-12T16:06:53.601Z,3.80
2022-11-12T16:10:00.501Z,8.30
2022-11-12T16:13:07.648Z,4.00
2022-11-12T16:16:15.391Z,3.90
2022-11-12T16:19:22.251Z,6.90
2022-11-12T16:22:30.172Z,4.80
2022-11-12T16:25:37.663Z,5.70
2022-11-12T16:28:44.645Z,4.00
2022-11-12T16:31:52.488Z,6.10
2022-11-12T16:35:01.265Z,3.50
2022-11-12T16:38:09.175Z,3.60
2022-11-12T16:41:16.444Z,7.30
2022-11-12T16:44:23.640Z,6.00
2022-11-12T16:47:30.766Z,5.90
2022-11-12T16:50:38.396Z,6.60
2022-11-12T16:53:45.435Z,5.80
2022-11-12T16:56:53.057Z,7.90
2022-11-12T16:59:59.876Z,7.30
2022-11-12T17:03:08.561Z,7.20
2022-11-12T17:06:16.459Z,7.10
2022-11-12T17:09:23.137Z,6.80
2022-11-12T17:12:30.942Z,7.70
2022-11-12T17:15:37.623Z,8.30
2022-11-12T17:18:44.919Z,8.50
2022-11-12T17:21:52.515Z,8.20
2022-11-12T17:24:59.231Z,8.60
2022-11-12T17:28:06.784Z,9.30
2022-11-12T17:31:14.041Z,10.50
2022-11-12T17:34:21.114Z,8.80
2022-11-12T17:37:28.335Z,9.80
2022-11-12T17:40:36.097Z,9.70
2022-11-12T17:43:43.115Z,7.80
2022-11-12T17:46:49.867Z,9.50
2022-11-12T17:49:56.635Z,9.10
2022-11-12T17:53:03.856Z,12.50
2022-11-12T17:56:11.398Z,9.20
2022-11-12T17:59:18.108Z,10.60
2022-11-12T18:02:25.860Z,10.00
2022-11-12T18:05:33.063Z,11.00
2022-11-12T18:08:40.391Z,11.90
2022-11-12T18:11:47.944Z,14.40
2022-11-12T18:14:54.671Z,17.70
2022-11-12T18:18:02.237Z,15.80
2022-11-12T18:21:09.503Z,17.80
2022-11-12T18:24:16.648Z,15.00
2022-11-12T18:27:23.783Z,17.60
2022-11-12T18:30:31.382Z,14.10
2022-11-12T18:33:38.824Z,16.20
2022-11-12T18:36:45.897Z,12.40
2022-11-12T18:39:52.975Z,13.30
2022-11-12T18:42:59.654Z,16.70
2022-11-12T18:46:07.144Z,15.40
2022-11-12T18:49:13.912Z,16.40
2022-11-12T18:52:21.536Z,27.30
2022-11-12T18:55:28.757Z,19.10
2022-11-12T18:58:35.965Z,16.30
2022-11-12T19:01:43.772Z,16.50
2022-11-12T19:04:51.620Z,18.30
2022-11-12T19:07:59.040Z,16.80
2022-11-12T19:11:06.119Z,18.70
2022-11-12T19:14:13.348Z,19.10
2022-11-12T19:17:20.707Z,16.50
2022-11-12T19:20:28.100Z,20.20
2022-11-12T19:23:36.942Z,21.00
2022-11-12T19:26:44.131Z,21.60
2022-11-12T19:27:27.623Z,20.50
2022-11-12T19:29:05.145Z,26.10
2022-11-12T19:32:04.620Z,23.60
2022-11-12T19:35:12.081Z,25.80
2022-11-12T19:38:19.382Z,24.70
2022-11-12T19:41:27.144Z,26.40
2022-11-12T19:44:34.025Z,46.80
2022-11-12T19:47:41.824Z,41.50
2022-11-12T19:50:48.693Z,29.90
2022-11-12T19:53:56.747Z,30.30
2022-11-12T19:57:04.051Z,31.20
2022-11-12T20:00:11.262Z,34.10
2022-11-12T20:03:18.465Z,32.70
2022-11-12T20:06:25.815Z,32.70
2022-11-12T20:09:33.394Z,29.20
2022-11-12T20:12:41.268Z,28.20
2022-11-12T20:15:48.087Z,25.00
2022-11-12T20:18:55.826Z,22.10
2022-11-12T20:22:03.219Z,17.40
2022-11-12T20:25:10.565Z,16.50
2022-11-12T20:28:17.873Z,22.10
2022-11-12T20:31:25.180Z,23.00
2022-11-12T20:34:32.426Z,25.70
2022-11-12T20:37:40.258Z,23.20
2022-11-12T20:40:47.042Z,26.70
2022-11-12T20:43:54.892Z,31.80
2022-11-12T20:47:01.863Z,35.20
2022-11-12T20:50:09.795Z,35.60
2022-11-12T20:53:17.244Z,33.80
2022-11-12T20:56:24.813Z,38.10
2022-11-12T20:59:32.368Z,37.50
2022-11-12T21:02:40.286Z,39.60
2022-11-12T21:05:48.065Z,43.60
2022-11-12T21:08:56.556Z,41.60
2022-11-12T21:12:03.464Z,45.20
2022-11-12T21:15:11.297Z,46.50
2022-11-12T21:18:18.394Z,41.10
2022-11-12T21:21:28.410Z,43.60
2022-11-12T21:24:27.645Z,44.50
2022-11-12T21:27:34.762Z,44.30
2022-11-12T21:30:41.990Z,45.60
2022-11-12T21:33:49.698Z,44.80
2022-11-12T21:36:56.480Z,45.20
2022-11-12T21:40:04.550Z,45.60
2022-11-12T21:43:11.300Z,46.90
2022-11-12T21:46:19.222Z,47.70
2022-11-12T21:49:26.494Z,50.80
2022-11-12T21:52:33.739Z,53.60
2022-11-12T21:55:40.914Z,52.30
2022-11-12T21:58:47.983Z,51.60
2022-11-12T22:01:55.085Z,52.10
2022-11-12T22:05:02.982Z,48.20
2022-11-12T22:08:09.715Z,46.10
2022-11-12T22:11:17.208Z,51.30
2022-11-12T22:14:24.352Z,46.50
2022-11-12T22:17:31.536Z,48.50
2022-11-12T22:20:38.697Z,42.50
2022-11-12T22:23:45.849Z,41.00
2022-11-12T22:26:53.045Z,43.00
2022-11-12T22:30:00.457Z,41.10
2022-11-12T22:33:07.240Z,38.50
2022-11-12T22:36:14.838Z,41.50
2022-11-12T22:39:21.980Z,46.40
2022-11-12T22:42:29.660Z,44.20
2022-11-12T22:45:36.840Z,43.40
2022-11-12T22:48:44.043Z,46.10
2022-11-12T22:51:51.071Z,41.80
2022-11-12T22:54:58.340Z,48.40
2022-11-12T22:58:05.573Z,38.60
2022-11-12T23:01:13.389Z,44.50
2022-11-12T23:04:20.101Z,43.00
2022-11-12T23:07:27.821Z,38.70
2022-11-12T23:10:35.204Z,35.60
2022-11-12T23:13:42.175Z,37.50
2022-11-12T23:16:49.255Z,35.40
2022-11-12T23:19:55.947Z,31.80
2022-11-12T23:23:03.049Z,35.40
2022-11-12T23:26:10.777Z,31.90
2022-11-12T23:29:17.487Z,32.30
2022-11-12T23:32:25.178Z,31.90
2022-11-12T23:35:32.389Z,31.10
2022-11-12T23:38:39.509Z,30.70
2022-11-12T23:41:46.670Z,29.70
2022-11-12T23:44:53.726Z,30.90
2022-11-12T23:48:01.281Z,32.60
2022-11-12T23:51:08.422Z,39.80
2022-11-12T23:54:15.622Z,34.80
2022-11-12T23:57:22.803Z,32.90
